Richmond-upon-Thames, United Kingdom
Current Conditions -  °F | °C
As of 12:50 PM on Saturday 25 Oct 2014 (Local Time) from EGLL Reporting Station
Broken Clouds Broken Clouds  
Wind Chill: 59°   Ceiling: 4100
Heat Index: 59°   Visibility: 6mi
Dew Point: 45°   Wind: 13mph
Humidity: 59%   Direction: 230°SW
Pressure: 30.09"   Gusts: NA
Location:  51.46°N, 0.3°W
Report Text: EGLL 251150Z 23011KT 9999 BKN041 15/07 Q1019 NOSIG
Loading
Personal Weather Stations






























Interactive Weather Map New forecast layout! Learn more

10-Day Weather Forecast

Advertisements
Track Severe Weather on mobile